sensor_id;sensor_type;location;lat;lon;timestamp;pressure;altitude;pressure_sealevel;temperature;humidity
78584;BME280;67880;46.082;18.234;2023-06-22T00:00:20;99755.47;;;25.41;64.11
78584;BME280;67880;46.082;18.234;2023-06-22T00:00:53;99753.81;;;25.39;64.77
78584;BME280;67880;46.082;18.234;2023-06-22T00:01:26;99755.75;;;25.39;64.81
78584;BME280;67880;46.082;18.234;2023-06-22T00:01:58;99747.81;;;25.43;64.34
78584;BME280;67880;46.082;18.234;2023-06-22T00:02:30;99751.66;;;25.42;64.40
78584;BME280;67880;46.082;18.234;2023-06-22T00:03:03;99749.72;;;25.42;64.41
78584;BME280;67880;46.082;18.234;2023-06-22T00:03:35;99744.81;;;25.44;64.51
78584;BME280;67880;46.082;18.234;2023-06-22T00:04:07;99740.66;;;25.42;64.19
78584;BME280;67880;46.082;18.234;2023-06-22T00:04:39;99749.47;;;25.44;64.57
78584;BME280;67880;46.082;18.234;2023-06-22T00:05:11;99745.66;;;25.45;64.90
78584;BME280;67880;46.082;18.234;2023-06-22T00:05:43;99749.22;;;25.45;64.58
78584;BME280;67880;46.082;18.234;2023-06-22T00:06:15;99745.06;;;25.43;64.46
78584;BME280;67880;46.082;18.234;2023-06-22T00:06:47;99745.88;;;25.43;65.09
78584;BME280;67880;46.082;18.234;2023-06-22T00:07:19;99748.41;;;25.45;64.31
78584;BME280;67880;46.082;18.234;2023-06-22T00:08:25;99742.06;;;25.44;64.30
78584;BME280;67880;46.082;18.234;2023-06-22T00:08:57;99753.31;;;25.43;64.77
78584;BME280;67880;46.082;18.234;2023-06-22T00:09:29;99748.06;;;25.41;64.47
78584;BME280;67880;46.082;18.234;2023-06-22T00:10:01;99742.84;;;25.39;65.01
78584;BME280;67880;46.082;18.234;2023-06-22T00:10:33;99749.72;;;25.42;64.60
78584;BME280;67880;46.082;18.234;2023-06-22T00:11:05;99737.63;;;25.43;64.58
78584;BME280;67880;46.082;18.234;2023-06-22T00:11:38;99735.16;;;25.42;64.53
78584;BME280;67880;46.082;18.234;2023-06-22T00:12:10;99731.06;;;25.44;64.33
78584;BME280;67880;46.082;18.234;2023-06-22T00:12:42;99730.00;;;25.45;64.15
78584;BME280;67880;46.082;18.234;2023-06-22T00:13:14;99728.56;;;25.43;64.62
78584;BME280;67880;46.082;18.234;2023-06-22T00:14:20;99722.75;;;25.39;64.54
78584;BME280;67880;46.082;18.234;2023-06-22T00:14:52;99720.00;;;25.39;65.00
78584;BME280;67880;46.082;18.234;2023-06-22T00:15:24;99715.34;;;25.39;64.64
78584;BME280;67880;46.082;18.234;2023-06-22T00:15:56;99712.06;;;25.43;65.12
78584;BME280;67880;46.082;18.234;2023-06-22T00:16:28;99710.94;;;25.38;64.74
78584;BME280;67880;46.082;18.234;2023-06-22T00:17:00;99710.94;;;25.38;64.67
78584;BME280;67880;46.082;18.234;2023-06-22T00:17:33;99719.41;;;25.37;64.60
78584;BME280;67880;46.082;18.234;2023-06-22T00:18:07;99707.28;;;25.33;65.00
78584;BME280;67880;46.082;18.234;2023-06-22T00:18:39;99716.28;;;25.28;65.45
78584;BME280;67880;46.082;18.234;2023-06-22T00:19:11;99718.53;;;25.31;65.54
78584;BME280;67880;46.082;18.234;2023-06-22T00:19:43;99715.28;;;25.34;64.67
78584;BME280;67880;46.082;18.234;2023-06-22T00:20:15;99711.63;;;25.29;65.17
78584;BME280;67880;46.082;18.234;2023-06-22T00:20:49;99721.84;;;25.33;64.95
78584;BME280;67880;46.082;18.234;2023-06-22T00:21:21;99713.88;;;25.32;65.36
78584;BME280;67880;46.082;18.234;2023-06-22T00:21:53;99716.03;;;25.30;65.65
78584;BME280;67880;46.082;18.234;2023-06-22T00:22:59;99717.88;;;25.24;65.28
78584;BME280;67880;46.082;18.234;2023-06-22T00:23:32;99716.47;;;25.22;65.69
78584;BME280;67880;46.082;18.234;2023-06-22T00:24:06;99715.56;;;25.16;65.83
78584;BME280;67880;46.082;18.234;2023-06-22T00:24:38;99711.69;;;25.12;65.84
78584;BME280;67880;46.082;18.234;2023-06-22T00:25:11;99720.75;;;25.13;66.33
78584;BME280;67880;46.082;18.234;2023-06-22T00:25:43;99718.84;;;25.13;65.95
78584;BME280;67880;46.082;18.234;2023-06-22T00:26:15;99718.50;;;25.09;66.47
78584;BME280;67880;46.082;18.234;2023-06-22T00:27:20;99723.31;;;25.02;66.19
78584;BME280;67880;46.082;18.234;2023-06-22T00:27:52;99735.72;;;25.05;66.58
78584;BME280;67880;46.082;18.234;2023-06-22T00:28:57;99741.00;;;25.06;66.96
78584;BME280;67880;46.082;18.234;2023-06-22T00:29:29;99746.72;;;25.05;66.50
78584;BME280;67880;46.082;18.234;2023-06-22T00:30:02;99746.72;;;25.05;66.25
78584;BME280;67880;46.082;18.234;2023-06-22T00:30:34;99751.38;;;25.04;66.50
78584;BME280;67880;46.082;18.234;2023-06-22T00:31:06;99760.94;;;25.02;66.89
78584;BME280;67880;46.082;18.234;2023-06-22T00:31:38;99754.34;;;25.03;66.75
78584;BME280;67880;46.082;18.234;2023-06-22T00:32:10;99768.09;;;25.03;67.15
78584;BME280;67880;46.082;18.234;2023-06-22T00:32:43;99769.66;;;24.99;66.75
78584;BME280;67880;46.082;18.234;2023-06-22T00:33:16;99761.75;;;25.02;66.81
78584;BME280;67880;46.082;18.234;2023-06-22T00:33:48;99770.63;;;25.04;66.67
78584;BME280;67880;46.082;18.234;2023-06-22T00:34:22;99766.81;;;25.05;67.00
78584;BME280;67880;46.082;18.234;2023-06-22T00:34:54;99771.94;;;25.02;66.68
78584;BME280;67880;46.082;18.234;2023-06-22T00:35:27;99768.34;;;25.01;66.70
78584;BME280;67880;46.082;18.234;2023-06-22T00:36:01;99769.66;;;24.99;66.59
78584;BME280;67880;46.082;18.234;2023-06-22T00:36:35;99768.34;;;25.01;66.69
78584;BME280;67880;46.082;18.234;2023-06-22T00:37:07;99773.34;;;25.04;66.88
78584;BME280;67880;46.082;18.234;2023-06-22T00:37:40;99766.16;;;25.03;66.20
78584;BME280;67880;46.082;18.234;2023-06-22T00:38:13;99773.34;;;25.04;66.62
78584;BME280;67880;46.082;18.234;2023-06-22T00:38:45;99770.63;;;25.04;66.51
78584;BME280;67880;46.082;18.234;2023-06-22T00:39:17;99770.84;;;25.03;66.19
78584;BME280;67880;46.082;18.234;2023-06-22T00:40:22;99775.50;;;25.02;66.25
78584;BME280;67880;46.082;18.234;2023-06-22T00:40:55;99778.84;;;25.04;66.22
78584;BME280;67880;46.082;18.234;2023-06-22T00:41:27;99782.91;;;25.02;66.75
78584;BME280;67880;46.082;18.234;2023-06-22T00:42:02;99783.28;;;25.05;65.96
78584;BME280;67880;46.082;18.234;2023-06-22T00:42:34;99783.03;;;25.07;65.92
78584;BME280;67880;46.082;18.234;2023-06-22T00:43:06;99785.78;;;25.07;66.16
78584;BME280;67880;46.082;18.234;2023-06-22T00:43:38;99788.53;;;25.07;66.19
78584;BME280;67880;46.082;18.234;2023-06-22T00:44:12;99793.19;;;25.06;66.70
78584;BME280;67880;46.082;18.234;2023-06-22T00:44:44;99794.28;;;25.05;66.33
78584;BME280;67880;46.082;18.234;2023-06-22T00:45:16;99793.66;;;25.03;66.86
78584;BME280;67880;46.082;18.234;2023-06-22T00:45:48;99793.91;;;25.02;66.47
78584;BME280;67880;46.082;18.234;2023-06-22T00:46:21;99796.56;;;24.97;67.08
78584;BME280;67880;46.082;18.234;2023-06-22T00:46:54;99801.81;;;24.98;66.97
78584;BME280;67880;46.082;18.234;2023-06-22T00:47:27;99806.47;;;24.98;66.61
78584;BME280;67880;46.082;18.234;2023-06-22T00:48:00;99800.13;;;24.97;67.08
78584;BME280;67880;46.082;18.234;2023-06-22T00:48:32;99802.06;;;24.97;67.36
78584;BME280;67880;46.082;18.234;2023-06-22T00:49:04;99807.56;;;24.97;66.57
78584;BME280;67880;46.082;18.234;2023-06-22T00:49:37;99808.28;;;24.92;66.68
78584;BME280;67880;46.082;18.234;2023-06-22T00:50:18;99806.16;;;24.94;66.81
78584;BME280;67880;46.082;18.234;2023-06-22T00:50:53;99803.66;;;24.93;67.27
78584;BME280;67880;46.082;18.234;2023-06-22T00:51:27;99799.47;;;24.90;67.42
78584;BME280;67880;46.082;18.234;2023-06-22T00:51:59;99798.66;;;24.90;67.29
78584;BME280;67880;46.082;18.234;2023-06-22T00:52:32;99801.66;;;24.88;66.94
78584;BME280;67880;46.082;18.234;2023-06-22T00:53:08;99797.00;;;24.89;66.89
78584;BME280;67880;46.082;18.234;2023-06-22T00:53:41;99793.66;;;24.87;67.10
78584;BME280;67880;46.082;18.234;2023-06-22T00:54:15;99793.66;;;24.87;67.53
78584;BME280;67880;46.082;18.234;2023-06-22T00:54:47;99790.91;;;24.87;66.95
78584;BME280;67880;46.082;18.234;2023-06-22T00:55:20;99787.84;;;24.83;67.11
78584;BME280;67880;46.082;18.234;2023-06-22T00:55:53;99785.91;;;24.83;67.44
78584;BME280;67880;46.082;18.234;2023-06-22T00:56:25;99785.66;;;24.85;67.41
78584;BME280;67880;46.082;18.234;2023-06-22T00:56:58;99788.41;;;24.85;67.15
78584;BME280;67880;46.082;18.234;2023-06-22T00:57:30;99791.97;;;24.85;67.13
78584;BME280;67880;46.082;18.234;2023-06-22T00:58:03;99795.25;;;24.82;67.40
78584;BME280;67880;46.082;18.234;2023-06-22T00:58:39;99791.31;;;24.78;67.24
78584;BME280;67880;46.082;18.234;2023-06-22T00:59:13;99798.47;;;24.79;67.84
78584;BME280;67880;46.082;18.234;2023-06-22T00:59:49;99791.31;;;24.78;67.78
78584;BME280;67880;46.082;18.234;2023-06-22T01:00:24;99791.56;;;24.77;67.78
78584;BME280;67880;46.082;18.234;2023-06-22T01:00:57;99791.25;;;24.73;67.63
78584;BME280;67880;46.082;18.234;2023-06-22T01:01:29;99794.00;;;24.73;67.99
78584;BME280;67880;46.082;18.234;2023-06-22T01:02:01;99798.88;;;24.71;67.77
78584;BME280;67880;46.082;18.234;2023-06-22T01:02:34;99789.56;;;24.72;68.09
78584;BME280;67880;46.082;18.234;2023-06-22T01:03:06;99790.91;;;24.70;68.40
78584;BME280;67880;46.082;18.234;2023-06-22T01:03:42;99796.03;;;24.66;68.19
78584;BME280;67880;46.082;18.234;2023-06-22T01:04:15;99792.47;;;24.66;67.52
78584;BME280;67880;46.082;18.234;2023-06-22T01:04:47;99788.91;;;24.65;68.44
78584;BME280;67880;46.082;18.234;2023-06-22T01:05:20;99791.53;;;24.60;68.39
78584;BME280;67880;46.082;18.234;2023-06-22T01:06:00;99793.47;;;24.59;68.57
78584;BME280;67880;46.082;18.234;2023-06-22T01:06:40;99789.06;;;24.58;68.51
78584;BME280;67880;46.082;18.234;2023-06-22T01:09:22;99796.97;;;24.55;68.62
78584;BME280;67880;46.082;18.234;2023-06-22T01:10:50;99793.41;;;24.54;68.43
78584;BME280;67880;46.082;18.234;2023-06-22T01:11:36;99793.41;;;24.54;68.88
78584;BME280;67880;46.082;18.234;2023-06-22T01:12:11;99784.34;;;24.54;69.05
78584;BME280;67880;46.082;18.234;2023-06-22T01:12:52;99790.88;;;24.53;69.29
78584;BME280;67880;46.082;18.234;2023-06-22T01:14:42;99783.97;;;24.50;69.37
78584;BME280;67880;46.082;18.234;2023-06-22T01:15:23;99789.47;;;24.50;69.22
78584;BME280;67880;46.082;18.234;2023-06-22T01:16:02;99789.13;;;24.47;68.77
78584;BME280;67880;46.082;18.234;2023-06-22T01:16:41;99784.50;;;24.47;69.52
78584;BME280;67880;46.082;18.234;2023-06-22T01:17:15;99782.72;;;24.41;69.74
78584;BME280;67880;46.082;18.234;2023-06-22T01:17:50;99782.47;;;24.43;69.71
78584;BME280;67880;46.082;18.234;2023-06-22T01:18:28;99793.44;;;24.43;69.25
78584;BME280;67880;46.082;18.234;2023-06-22T01:19:16;99785.47;;;24.41;69.68
78584;BME280;67880;46.082;18.234;2023-06-22T01:19:54;99792.84;;;24.41;69.65
78584;BME280;67880;46.082;18.234;2023-06-22T01:20:30;99790.09;;;24.41;69.16
78584;BME280;67880;46.082;18.234;2023-06-22T01:21:11;99792.63;;;24.42;69.60
78584;BME280;67880;46.082;18.234;2023-06-22T01:21:45;99785.47;;;24.41;69.84
78584;BME280;67880;46.082;18.234;2023-06-22T01:22:22;99788.44;;;24.40;69.77
78584;BME280;67880;46.082;18.234;2023-06-22T01:24:18;99793.09;;;24.39;69.55
78584;BME280;67880;46.082;18.234;2023-06-22T01:27:01;99790.97;;;24.41;69.58
78584;BME280;67880;46.082;18.234;2023-06-22T01:29:15;99787.50;;;24.34;69.34
78584;BME280;67880;46.082;18.234;2023-06-22T01:29:52;99798.72;;;24.32;69.83
78584;BME280;67880;46.082;18.234;2023-06-22T01:30:34;99798.72;;;24.32;70.11
78584;BME280;67880;46.082;18.234;2023-06-22T01:31:08;99799.53;;;24.33;69.98
78584;BME280;67880;46.082;18.234;2023-06-22T01:31:48;99797.66;;;24.34;69.77
78584;BME280;67880;46.082;18.234;2023-06-22T01:32:34;99793.00;;;24.34;69.90
78584;BME280;67880;46.082;18.234;2023-06-22T01:33:11;99793.59;;;24.36;69.97
78584;BME280;67880;46.082;18.234;2023-06-22T01:33:48;99798.28;;;24.36;69.98
78584;BME280;67880;46.082;18.234;2023-06-22T01:34:23;99804.84;;;24.35;69.71
78584;BME280;67880;46.082;18.234;2023-06-22T01:35:30;99801.22;;;24.34;70.00
78584;BME280;67880;46.082;18.234;2023-06-22T01:36:03;99797.06;;;24.31;69.56
78584;BME280;67880;46.082;18.234;2023-06-22T01:36:38;99800.41;;;24.34;69.67
78584;BME280;67880;46.082;18.234;2023-06-22T01:37:12;99801.44;;;24.32;69.89
78584;BME280;67880;46.082;18.234;2023-06-22T01:37:45;99802.41;;;24.38;69.11
78584;BME280;67880;46.082;18.234;2023-06-22T01:38:18;99799.69;;;24.38;69.68
78584;BME280;67880;46.082;18.234;2023-06-22T01:38:52;99792.53;;;24.37;69.94
78584;BME280;67880;46.082;18.234;2023-06-22T01:39:25;99800.75;;;24.37;69.54
78584;BME280;67880;46.082;18.234;2023-06-22T01:39:58;99795.28;;;24.37;69.42
78584;BME280;67880;46.082;18.234;2023-06-22T01:40:33;99791.56;;;24.31;69.95
78584;BME280;67880;46.082;18.234;2023-06-22T01:41:05;99796.34;;;24.36;69.44
78584;BME280;67880;46.082;18.234;2023-06-22T01:41:38;99793.09;;;24.39;69.86
78584;BME280;67880;46.082;18.234;2023-06-22T01:42:12;99795.59;;;24.41;69.43
78584;BME280;67880;46.082;18.234;2023-06-22T01:42:44;99787.34;;;24.41;69.16
78584;BME280;67880;46.082;18.234;2023-06-22T01:43:17;99792.63;;;24.42;69.37
78584;BME280;67880;46.082;18.234;2023-06-22T01:43:49;99795.94;;;24.44;69.87
78584;BME280;67880;46.082;18.234;2023-06-22T01:44:24;99796.44;;;24.41;69.39
78584;BME280;67880;46.082;18.234;2023-06-22T01:44:58;99799.41;;;24.40;69.72
78584;BME280;67880;46.082;18.234;2023-06-22T01:45:31;99795.00;;;24.39;69.46
78584;BME280;67880;46.082;18.234;2023-06-22T01:46:04;99791.19;;;24.40;69.88
78584;BME280;67880;46.082;18.234;2023-06-22T01:46:37;99784.63;;;24.41;69.77
78584;BME280;67880;46.082;18.234;2023-06-22T01:47:10;99786.53;;;24.40;69.79
78584;BME280;67880;46.082;18.234;2023-06-22T01:47:46;99794.53;;;24.42;69.47
78584;BME280;67880;46.082;18.234;2023-06-22T01:48:19;99788.94;;;24.37;69.79
78584;BME280;67880;46.082;18.234;2023-06-22T01:48:53;99797.19;;;24.37;69.65
78584;BME280;67880;46.082;18.234;2023-06-22T01:49:25;99792.28;;;24.39;69.78
78584;BME280;67880;46.082;18.234;2023-06-22T01:49:58;99791.44;;;24.38;69.94
78584;BME280;67880;46.082;18.234;2023-06-22T01:50:30;99795.28;;;24.37;69.51
78584;BME280;67880;46.082;18.234;2023-06-22T01:51:03;99793.34;;;24.38;69.38
78584;BME280;67880;46.082;18.234;2023-06-22T01:51:35;99790.63;;;24.38;69.66
78584;BME280;67880;46.082;18.234;2023-06-22T01:52:07;99798.50;;;24.34;69.42
78584;BME280;67880;46.082;18.234;2023-06-22T01:52:39;99793.22;;;24.32;69.76
78584;BME280;67880;46.082;18.234;2023-06-22T01:53:11;99791.81;;;24.30;69.97
78584;BME280;67880;46.082;18.234;2023-06-22T01:53:43;99789.06;;;24.30;70.38
78584;BME280;67880;46.082;18.234;2023-06-22T01:54:15;99798.97;;;24.31;69.43
78584;BME280;67880;46.082;18.234;2023-06-22T01:54:47;99795.66;;;24.29;69.66
78584;BME280;67880;46.082;18.234;2023-06-22T01:55:20;99794.81;;;24.28;69.87
78584;BME280;67880;46.082;18.234;2023-06-22T01:55:52;99793.38;;;24.26;70.02
78584;BME280;67880;46.082;18.234;2023-06-22T01:56:26;99791.13;;;24.23;70.83
78584;BME280;67880;46.082;18.234;2023-06-22T01:56:58;99793.06;;;24.22;69.82
78584;BME280;67880;46.082;18.234;2023-06-22T01:57:31;99796.25;;;24.19;70.15
78584;BME280;67880;46.082;18.234;2023-06-22T01:58:03;99788.03;;;24.19;70.67
78584;BME280;67880;46.082;18.234;2023-06-22T01:58:43;99791.03;;;24.18;70.00
78584;BME280;67880;46.082;18.234;2023-06-22T02:00:34;99794.75;;;24.12;70.83
78584;BME280;67880;46.082;18.234;2023-06-22T02:01:12;99796.16;;;24.14;70.25
78584;BME280;67880;46.082;18.234;2023-06-22T02:01:59;99787.84;;;24.09;70.57
78584;BME280;67880;46.082;18.234;2023-06-22T02:02:43;99792.84;;;24.12;70.72
78584;BME280;67880;46.082;18.234;2023-06-22T02:03:22;99794.84;;;24.17;70.48
78584;BME280;67880;46.082;18.234;2023-06-22T02:04:05;99801.19;;;24.17;70.61
78584;BME280;67880;46.082;18.234;2023-06-22T02:05:01;99796.78;;;24.16;70.78
78584;BME280;67880;46.082;18.234;2023-06-22T02:05:39;99795.44;;;24.19;70.48
78584;BME280;67880;46.082;18.234;2023-06-22T02:06:17;99791.28;;;24.16;70.46
78584;BME280;67880;46.082;18.234;2023-06-22T02:06:58;99795.69;;;24.17;70.18
78584;BME280;67880;46.082;18.234;2023-06-22T02:07:35;99797.59;;;24.17;70.24
78584;BME280;67880;46.082;18.234;2023-06-22T02:08:13;99796.63;;;24.23;70.12
78584;BME280;67880;46.082;18.234;2023-06-22T02:08:53;99795.13;;;24.15;70.35
78584;BME280;67880;46.082;18.234;2023-06-22T02:09:30;99794.50;;;24.13;69.98
78584;BME280;67880;46.082;18.234;2023-06-22T02:10:06;99793.91;;;24.11;70.28
78584;BME280;67880;46.082;18.234;2023-06-22T02:10:40;99797.97;;;24.09;70.45
78584;BME280;67880;46.082;18.234;2023-06-22T02:11:17;99799.66;;;24.10;70.59
78584;BME280;67880;46.082;18.234;2023-06-22T02:11:55;99796.91;;;24.10;70.76
78584;BME280;67880;46.082;18.234;2023-06-22T02:12:29;99791.19;;;24.11;70.77
78584;BME280;67880;46.082;18.234;2023-06-22T02:13:04;99804.06;;;24.11;70.92
78584;BME280;67880;46.082;18.234;2023-06-22T02:13:37;99804.63;;;24.13;70.27
78584;BME280;67880;46.082;18.234;2023-06-22T02:14:13;99803.34;;;24.15;70.86
78584;BME280;67880;46.082;18.234;2023-06-22T02:14:46;99811.78;;;24.14;70.79
78584;BME280;67880;46.082;18.234;2023-06-22T02:15:19;99805.47;;;24.13;70.42
78584;BME280;67880;46.082;18.234;2023-06-22T02:15:52;99813.22;;;24.16;70.25
78584;BME280;67880;46.082;18.234;2023-06-22T02:16:25;99810.50;;;24.16;70.94
78584;BME280;67880;46.082;18.234;2023-06-22T02:17:02;99803.34;;;24.15;70.29
78584;BME280;67880;46.082;18.234;2023-06-22T02:17:36;99803.34;;;24.15;70.46
78584;BME280;67880;46.082;18.234;2023-06-22T02:18:08;99802.97;;;24.12;70.25
78584;BME280;67880;46.082;18.234;2023-06-22T02:18:48;99810.13;;;24.13;70.23
78584;BME280;67880;46.082;18.234;2023-06-22T02:19:23;99805.16;;;24.10;70.72
78584;BME280;67880;46.082;18.234;2023-06-22T02:19:56;99810.97;;;24.13;70.35
78584;BME280;67880;46.082;18.234;2023-06-22T02:20:28;99813.13;;;24.11;70.43
78584;BME280;67880;46.082;18.234;2023-06-22T02:21:00;99808.72;;;24.10;70.36
78584;BME280;67880;46.082;18.234;2023-06-22T02:21:32;99810.63;;;24.10;70.53
78584;BME280;67880;46.082;18.234;2023-06-22T02:22:04;99810.38;;;24.11;70.43
78584;BME280;67880;46.082;18.234;2023-06-22T02:22:36;99813.72;;;24.13;70.57
78584;BME280;67880;46.082;18.234;2023-06-22T02:23:08;99814.31;;;24.15;70.39
78584;BME280;67880;46.082;18.234;2023-06-22T02:23:40;99819.19;;;24.13;70.68
78584;BME280;67880;46.082;18.234;2023-06-22T02:24:12;99819.19;;;24.13;70.27
78584;BME280;67880;46.082;18.234;2023-06-22T02:24:45;99818.34;;;24.13;70.39
78584;BME280;67880;46.082;18.234;2023-06-22T02:25:17;99816.44;;;24.13;70.04
78584;BME280;67880;46.082;18.234;2023-06-22T02:25:49;99818.09;;;24.14;70.67
78584;BME280;67880;46.082;18.234;2023-06-22T02:26:21;99818.63;;;24.11;70.16
78584;BME280;67880;46.082;18.234;2023-06-22T02:26:53;99819.69;;;24.10;70.56
78584;BME280;67880;46.082;18.234;2023-06-22T02:27:25;99822.75;;;24.14;70.35
78584;BME280;67880;46.082;18.234;2023-06-22T02:27:57;99825.50;;;24.14;70.30
78584;BME280;67880;46.082;18.234;2023-06-22T02:28:29;99824.69;;;24.13;70.61
78584;BME280;67880;46.082;18.234;2023-06-22T02:29:01;99824.09;;;24.11;70.82
78584;BME280;67880;46.082;18.234;2023-06-22T02:29:33;99827.91;;;24.10;70.26
78584;BME280;67880;46.082;18.234;2023-06-22T02:30:08;99830.56;;;24.05;71.16
78584;BME280;67880;46.082;18.234;2023-06-22T02:30:43;99828.38;;;24.07;70.59
78584;BME280;67880;46.082;18.234;2023-06-22T02:31:15;99827.31;;;24.08;70.67
78584;BME280;67880;46.082;18.234;2023-06-22T02:31:47;99831.50;;;24.11;70.45
78584;BME280;67880;46.082;18.234;2023-06-22T02:32:19;99827.09;;;24.10;70.93
78584;BME280;67880;46.082;18.234;2023-06-22T02:32:52;99831.75;;;24.09;70.49
78584;BME280;67880;46.082;18.234;2023-06-22T02:33:30;99830.06;;;24.08;70.37
78584;BME280;67880;46.082;18.234;2023-06-22T02:34:02;99828.06;;;24.03;70.95
78584;BME280;67880;46.082;18.234;2023-06-22T02:34:35;99822.56;;;24.03;70.50
78584;BME280;67880;46.082;18.234;2023-06-22T02:35:09;99836.88;;;24.05;71.05
78584;BME280;67880;46.082;18.234;2023-06-22T02:35:41;99828.38;;;24.07;70.84
78584;BME280;67880;46.082;18.234;2023-06-22T02:36:17;99827.22;;;24.03;71.03
78584;BME280;67880;46.082;18.234;2023-06-22T02:36:53;99829.38;;;24.01;70.98
78584;BME280;67880;46.082;18.234;2023-06-22T02:37:25;99831.63;;;24.04;70.88
78584;BME280;67880;46.082;18.234;2023-06-22T02:38:03;99828.28;;;24.02;70.88
78584;BME280;67880;46.082;18.234;2023-06-22T02:38:35;99829.38;;;24.01;71.23
78584;BME280;67880;46.082;18.234;2023-06-22T02:39:08;99826.63;;;24.01;70.38
78584;BME280;67880;46.082;18.234;2023-06-22T02:39:40;99825.78;;;24.00;71.00
78584;BME280;67880;46.082;18.234;2023-06-22T02:40:12;99823.66;;;24.02;70.66
78584;BME280;67880;46.082;18.234;2023-06-22T02:40:44;99818.41;;;24.01;71.32
78584;BME280;67880;46.082;18.234;2023-06-22T02:41:16;99822.31;;;24.05;70.96
78584;BME280;67880;46.082;18.234;2023-06-22T02:41:53;99830.31;;;24.07;70.80
78584;BME280;67880;46.082;18.234;2023-06-22T02:42:25;99824.00;;;24.06;70.80
78584;BME280;67880;46.082;18.234;2023-06-22T02:42:58;99831.03;;;24.02;70.52
78584;BME280;67880;46.082;18.234;2023-06-22T02:43:34;99821.63;;;23.98;70.69
78584;BME280;67880;46.082;18.234;2023-06-22T02:44:06;99830.13;;;23.96;71.19
78584;BME280;67880;46.082;18.234;2023-06-22T02:44:38;99821.53;;;23.93;71.23
78584;BME280;67880;46.082;18.234;2023-06-22T02:45:10;99833.06;;;23.95;70.77
78584;BME280;67880;46.082;18.234;2023-06-22T02:45:42;99825.47;;;23.97;71.47
78584;BME280;67880;46.082;18.234;2023-06-22T02:46:14;99827.94;;;23.98;71.13
78584;BME280;67880;46.082;18.234;2023-06-22T02:46:47;99828.53;;;24.00;70.80
78584;BME280;67880;46.082;18.234;2023-06-22T02:47:19;99823.88;;;24.01;70.75
78584;BME280;67880;46.082;18.234;2023-06-22T02:47:52;99826.47;;;24.08;70.29
78584;BME280;67880;46.082;18.234;2023-06-22T02:48:24;99823.28;;;24.11;70.60
78584;BME280;67880;46.082;18.234;2023-06-22T02:48:56;99830.88;;;24.09;70.41
78584;BME280;67880;46.082;18.234;2023-06-22T02:49:28;99832.22;;;24.06;70.72
78584;BME280;67880;46.082;18.234;2023-06-22T02:50:00;99829.47;;;24.06;70.29
78584;BME280;67880;46.082;18.234;2023-06-22T02:50:32;99828.06;;;24.03;70.31
78584;BME280;67880;46.082;18.234;2023-06-22T02:51:05;99826.41;;;24.02;70.47
78584;BME280;67880;46.082;18.234;2023-06-22T02:51:39;99835.22;;;24.04;70.81
78584;BME280;67880;46.082;18.234;2023-06-22T02:52:44;99831.28;;;24.00;70.61
78584;BME280;67880;46.082;18.234;2023-06-22T02:53:16;99828.19;;;23.97;70.99
78584;BME280;67880;46.082;18.234;2023-06-22T02:53:48;99829.88;;;23.98;70.76
78584;BME280;67880;46.082;18.234;2023-06-22T02:54:23;99834.03;;;24.00;70.81
78584;BME280;67880;46.082;18.234;2023-06-22T02:54:55;99845.94;;;24.06;71.13
78584;BME280;67880;46.082;18.234;2023-06-22T02:55:27;99833.63;;;24.09;70.68
78584;BME280;67880;46.082;18.234;2023-06-22T02:56:01;99835.66;;;24.13;70.90
78584;BME280;67880;46.082;18.234;2023-06-22T02:56:33;99834.56;;;24.14;70.26
78584;BME280;67880;46.082;18.234;2023-06-22T02:57:05;99824.69;;;24.13;70.59
78584;BME280;67880;46.082;18.234;2023-06-22T02:57:37;99832.06;;;24.13;70.51
78584;BME280;67880;46.082;18.234;2023-06-22T02:58:09;99823.84;;;24.13;70.16
78584;BME280;67880;46.082;18.234;2023-06-22T02:58:41;99825.91;;;24.05;70.59
78584;BME280;67880;46.082;18.234;2023-06-22T02:59:14;99824.25;;;24.04;70.42
78584;BME280;67880;46.082;18.234;2023-06-22T02:59:46;99833.53;;;24.03;71.09
78584;BME280;67880;46.082;18.234;2023-06-22T03:00:19;99833.53;;;24.03;70.93
78584;BME280;67880;46.082;18.234;2023-06-22T03:00:51;99825.53;;;24.02;70.67
78584;BME280;67880;46.082;18.234;2023-06-22T03:01:24;99829.72;;;24.04;71.34
78584;BME280;67880;46.082;18.234;2023-06-22T03:01:57;99836.44;;;23.97;71.02
78584;BME280;67880;46.082;18.234;2023-06-22T03:02:29;99840.59;;;23.99;71.27
78584;BME280;67880;46.082;18.234;2023-06-22T03:03:01;99834.28;;;23.99;70.64
78584;BME280;67880;46.082;18.234;2023-06-22T03:03:33;99836.44;;;23.97;70.94
78584;BME280;67880;46.082;18.234;2023-06-22T03:04:06;99833.69;;;23.97;71.60
78584;BME280;67880;46.082;18.234;2023-06-22T03:04:39;99836.66;;;23.95;71.39
78584;BME280;67880;46.082;18.234;2023-06-22T03:05:12;99841.91;;;23.97;71.41
78584;BME280;67880;46.082;18.234;2023-06-22T03:05:50;99835.69;;;24.01;70.31
78584;BME280;67880;46.082;18.234;2023-06-22T03:06:24;99839.97;;;24.09;70.02
78584;BME280;67880;46.082;18.234;2023-06-22T03:07:00;99842.22;;;24.12;70.06
78584;BME280;67880;46.082;18.234;2023-06-22T03:07:33;99839.72;;;24.11;69.88
78584;BME280;67880;46.082;18.234;2023-06-22T03:08:05;99840.66;;;24.16;70.26
78584;BME280;67880;46.082;18.234;2023-06-22T03:08:37;99834.09;;;24.17;69.97
78584;BME280;67880;46.082;18.234;2023-06-22T03:09:09;99836.59;;;24.19;70.30
78584;BME280;67880;46.082;18.234;2023-06-22T03:09:41;99840.75;;;24.21;69.91
78584;BME280;67880;46.082;18.234;2023-06-22T03:10:14;99844.56;;;24.20;69.45
78584;BME280;67880;46.082;18.234;2023-06-22T03:10:47;99840.41;;;24.18;69.59
78584;BME280;67880;46.082;18.234;2023-06-22T03:11:19;99835.41;;;24.15;70.69
78584;BME280;67880;46.082;18.234;2023-06-22T03:11:51;99834.09;;;24.17;69.94